Time;durP1;ratioP1;P1;durP2;ratioP2;P2;SDS_P1;SDS_P2;PMS_P1;PMS_P2;Temp;Humidity;BMP_temperature;BMP_pressure;BME280_temperature;BME280_humidity;BME280_pressure;Samples;Min_cycle;Max_cycle;Signal;HPM_P1;HPM_P2
2021/12/14 00:01:50;;;;;;;29.23;22.10;;;;;;;12.55;41.24;102121.81;4862098;29;20072;-78
2021/12/14 00:04:29;;;;;;;30.23;21.10;;;;;;;12.54;41.13;102120.16;4861803;29;20106;-73
2021/12/14 00:06:56;;;;;;;26.73;19.25;;;;;;;12.53;41.14;102117.72;4861952;29;20128;-72
2021/12/14 00:09:28;;;;;;;26.85;20.05;;;;;;;12.47;41.31;102117.00;4861925;29;20086;-73
2021/12/14 00:17:25;;;;;;;24.70;19.77;;;;;;;12.29;40.80;102117.72;4861856;29;20362;-72
2021/12/14 00:19:54;;;;;;;24.08;18.30;;;;;;;12.39;40.86;102125.81;4861839;29;20041;-73
2021/12/14 00:22:30;;;;;;;28.65;20.00;;;;;;;12.37;40.91;102122.56;4861650;29;20024;-73
2021/12/14 00:24:57;;;;;;;25.73;19.02;;;;;;;12.37;40.87;102117.09;4861626;29;20061;-74
2021/12/14 00:27:24;;;;;;;24.63;18.65;;;;;;;12.37;41.05;102109.69;4861451;29;20451;-72
2021/12/14 00:29:54;;;;;;;26.58;19.17;;;;;;;12.37;40.77;102106.13;4861556;29;20393;-72
2021/12/14 00:32:21;;;;;;;;;;;;;;;12.28;40.99;102102.41;4862296;29;20032;-72
2021/12/14 00:34:48;;;;;;;24.10;17.17;;;;;;;12.41;40.72;102098.97;4861422;29;20295;-71
2021/12/14 00:37:22;;;;;;;21.67;17.73;;;;;;;12.41;40.91;102097.03;4861358;29;20033;-72
2021/12/14 00:39:49;;;;;;;29.63;18.98;;;;;;;12.44;40.98;102096.44;4861417;29;20022;-72
2021/12/14 00:42:15;;;;;;;21.23;16.02;;;;;;;12.39;40.87;102098.41;4861232;29;20033;-72
2021/12/14 00:44:40;;;;;;;26.95;16.60;;;;;;;12.41;40.87;102099.78;4861118;29;20380;-72
2021/12/14 00:47:06;;;;;;;23.38;16.92;;;;;;;12.50;40.93;102094.47;4861258;29;20033;-72
2021/12/14 00:49:34;;;;;;;20.98;15.30;;;;;;;12.53;40.93;102096.59;4861169;29;20481;-72
2021/12/14 00:52:01;;;;;;;18.95;12.30;;;;;;;12.57;41.12;102110.56;4860851;29;20031;-72
2021/12/14 00:54:27;;;;;;;24.95;15.60;;;;;;;12.56;41.38;102106.19;4861195;29;20419;-72
2021/12/14 00:56:53;;;;;;;20.50;13.50;;;;;;;12.59;41.25;102111.88;4861000;29;20037;-72
2021/12/14 00:59:21;;;;;;;19.90;12.65;;;;;;;12.62;41.01;102113.22;4861040;29;20076;-73
2021/12/14 01:01:56;;;;;;;20.60;13.15;;;;;;;12.61;41.36;102106.09;4861101;29;20021;-72
2021/12/14 01:04:26;;;;;;;19.30;12.93;;;;;;;12.65;41.28;102107.16;4860941;29;20029;-73
2021/12/14 01:06:53;;;;;;;20.63;12.90;;;;;;;12.66;41.11;102101.38;4860856;29;20045;-74
2021/12/14 01:09:24;;;;;;;22.73;13.50;;;;;;;12.64;41.17;102100.88;4860989;29;20404;-72
2021/12/14 01:11:52;;;;;;;20.20;12.40;;;;;;;12.60;41.14;102096.25;4860892;29;20034;-72
2021/12/14 01:14:28;;;;;;;22.90;13.13;;;;;;;12.61;41.20;102092.41;4860855;29;20065;-72
2021/12/14 01:17:10;;;;;;;22.40;15.05;;;;;;;12.51;41.08;102085.13;4844125;29;20033;-71
2021/12/14 01:19:39;;;;;;;20.45;13.70;;;;;;;12.47;41.08;102087.66;4860692;29;20116;-72
2021/12/14 01:29:20;;;;;;;20.83;14.13;;;;;;;12.45;41.11;102083.53;4878855;29;20045;-72
2021/12/14 01:31:48;;;;;;;19.98;13.70;;;;;;;12.45;41.12;102075.31;4879085;29;20519;-72
2021/12/14 01:34:18;;;;;;;17.58;12.68;;;;;;;12.43;41.10;102074.81;4879009;29;20058;-72
2021/12/14 01:36:50;;;;;;;18.77;13.05;;;;;;;12.38;41.02;102074.84;4877765;29;20489;-72
2021/12/14 01:41:54;;;;;;;;;;;;;;;12.24;41.25;102061.03;4879711;29;20093;-73
2021/12/14 01:44:20;;;;;;;17.50;11.35;;;;;;;12.44;40.85;102060.00;4878891;29;19915;-72
2021/12/14 01:46:55;;;;;;;16.75;12.73;;;;;;;12.37;41.11;102051.31;4878836;29;20040;-73
2021/12/14 01:49:24;;;;;;;15.50;10.30;;;;;;;12.37;40.97;102057.59;4878986;29;20029;-72
2021/12/14 01:51:52;;;;;;;12.50;9.82;;;;;;;12.42;41.31;102059.47;4878909;29;20018;-77
2021/12/14 01:54:23;;;;;;;15.77;11.27;;;;;;;12.43;41.33;102048.22;4878849;29;20029;-74
2021/12/14 01:56:48;;;;;;;14.38;9.90;;;;;;;12.51;41.15;102057.72;4878820;29;20476;-72
2021/12/14 01:59:34;;;;;;;17.50;10.70;;;;;;;12.52;41.41;102053.03;4878681;29;20029;-71
2021/12/14 02:04:46;;;;;;;15.43;9.25;;;;;;;12.59;41.19;102056.22;4878783;29;20429;-72
2021/12/14 02:07:14;;;;;;;14.02;9.30;;;;;;;12.62;41.29;102056.47;4878353;29;20033;-72
2021/12/14 02:09:41;;;;;;;15.13;8.98;;;;;;;12.61;41.43;102063.03;4864708;29;20477;-72
2021/12/14 02:12:19;;;;;;;16.38;10.98;;;;;;;12.62;41.49;102051.00;4859875;29;20085;-73
2021/12/14 02:14:46;;;;;;;14.77;8.85;;;;;;;12.68;41.43;102057.19;4860174;29;20516;-72
2021/12/14 02:17:15;;;;;;;16.98;9.80;;;;;;;12.70;41.28;102061.31;4860013;29;20034;-71
2021/12/14 02:19:42;;;;;;;19.60;10.13;;;;;;;12.65;41.47;102060.53;4859964;29;20458;-72
2021/12/14 02:22:09;;;;;;;16.63;10.63;;;;;;;12.71;41.49;102057.44;4859939;29;20034;-78
2021/12/14 02:24:38;;;;;;;16.38;10.23;;;;;;;12.76;41.46;102054.63;4859969;29;20037;-72
2021/12/14 02:27:04;;;;;;;12.82;9.63;;;;;;;12.78;41.42;102059.81;4859928;29;20033;-71
2021/12/14 02:29:40;;;;;;;14.73;9.70;;;;;;;12.75;41.25;102065.88;4859784;29;20070;-72
2021/12/14 02:32:16;;;;;;;12.52;9.52;;;;;;;12.72;41.39;102070.03;4859992;29;20033;-73
2021/12/14 02:34:50;;;;;;;16.25;11.40;;;;;;;12.71;41.41;102075.81;4859948;29;20122;-78
2021/12/14 02:37:19;;;;;;;15.45;10.77;;;;;;;12.73;41.40;102076.34;4859929;29;20379;-79
2021/12/14 02:42:32;;;;;;;12.23;10.13;;;;;;;12.66;42.03;102082.19;4859860;29;20120;-72
2021/12/14 02:44:58;;;;;;;15.77;9.65;;;;;;;12.80;41.36;102081.47;4859798;29;20090;-72
2021/12/14 02:47:25;;;;;;;15.73;9.80;;;;;;;12.81;41.67;102083.91;4859860;29;20025;-72
2021/12/14 02:49:51;;;;;;;19.48;11.77;;;;;;;12.90;41.48;102086.78;4859838;29;20064;-72
2021/12/14 02:52:34;;;;;;;18.42;10.93;;;;;;;12.92;41.37;102092.78;4859756;29;20037;-72
2021/12/14 02:55:13;;;;;;;14.10;9.68;;;;;;;12.88;41.53;102083.53;4859708;29;20037;-73
2021/12/14 02:57:48;;;;;;;15.43;9.88;;;;;;;12.90;41.79;102095.84;4859842;29;20503;-72
2021/12/14 03:00:22;;;;;;;13.95;10.73;;;;;;;12.87;41.88;102087.41;4859712;29;20040;-72
2021/12/14 03:02:48;;;;;;;15.27;9.77;;;;;;;12.91;42.16;102093.91;4859779;29;20048;-72
2021/12/14 03:05:30;;;;;;;16.25;9.82;;;;;;;12.93;41.82;102091.72;4859575;29;20055;-72
2021/12/14 03:08:21;;;;;;;15.70;9.25;;;;;;;12.92;41.82;102090.91;4859723;29;20034;-72
2021/12/14 03:10:59;;;;;;;12.88;8.27;;;;;;;12.96;41.66;102091.09;4852852;29;20485;-72
2021/12/14 03:13:32;;;;;;;15.55;8.90;;;;;;;12.97;41.83;102088.06;4860246;29;20030;-72
2021/12/14 03:16:04;;;;;;;14.05;8.27;;;;;;;13.04;41.83;102079.47;4862662;29;20060;-73
2021/12/14 03:18:35;;;;;;;10.80;8.70;;;;;;;13.05;41.83;102070.13;4862913;29;20029;-72
2021/12/14 03:21:10;;;;;;;10.18;7.40;;;;;;;12.99;42.09;102079.53;4862757;29;20420;-72
2021/12/14 03:23:39;;;;;;;10.82;7.53;;;;;;;13.04;42.05;102080.28;4862796;29;20108;-72
2021/12/14 03:26:08;;;;;;;11.40;8.10;;;;;;;13.10;41.99;102075.53;4862638;29;20030;-72
2021/12/14 03:28:36;;;;;;;10.63;7.93;;;;;;;13.14;41.82;102079.31;4862602;29;20126;-78
2021/12/14 03:31:08;;;;;;;9.25;7.25;;;;;;;13.13;42.26;102074.13;4862728;29;20056;-72
2021/12/14 03:33:39;;;;;;;12.10;8.63;;;;;;;13.14;41.94;102071.06;4846026;29;20082;-72
2021/12/14 03:36:09;;;;;;;15.75;9.07;;;;;;;13.16;41.88;102077.09;4862551;29;20033;-72
2021/12/14 03:38:40;;;;;;;12.00;8.50;;;;;;;13.16;41.98;102070.78;4862535;29;20021;-72
2021/12/14 03:41:12;;;;;;;15.73;8.32;;;;;;;13.17;42.01;102069.69;4862455;29;20481;-72
2021/12/14 03:43:42;;;;;;;13.48;7.97;;;;;;;13.21;42.01;102074.28;4862438;29;20030;-72
2021/12/14 03:46:08;;;;;;;13.98;7.85;;;;;;;13.22;42.01;102073.16;4862319;29;20037;-72
2021/12/14 03:48:36;;;;;;;13.00;8.68;;;;;;;13.23;41.90;102068.53;4862327;29;20158;-72
2021/12/14 03:51:03;;;;;;;10.38;7.05;;;;;;;13.19;42.12;102065.50;4862462;29;20036;-72
2021/12/14 03:53:29;;;;;;;10.32;6.95;;;;;;;13.22;42.03;102067.69;4862307;29;20058;-77
2021/12/14 03:56:02;;;;;;;9.98;7.10;;;;;;;13.21;42.35;102067.97;4862200;29;20037;-72
2021/12/14 03:58:35;;;;;;;8.13;5.75;;;;;;;13.23;42.26;102066.59;4862214;29;20029;-72
2021/12/14 04:01:06;;;;;;;10.88;6.45;;;;;;;13.23;42.55;102071.28;4862172;29;20030;-72
2021/12/14 04:03:32;;;;;;;11.73;6.10;;;;;;;13.30;42.37;102078.00;4862086;29;20032;-72
2021/12/14 04:05:58;;;;;;;10.07;6.95;;;;;;;13.35;42.44;102076.28;4861977;29;20128;-72
2021/12/14 04:08:27;;;;;;;8.15;6.70;;;;;;;13.38;42.43;102064.72;4861928;29;20101;-71
2021/12/14 04:10:55;;;;;;;8.95;7.43;;;;;;;13.41;42.27;102064.09;4862004;29;20490;-72
2021/12/14 04:13:24;;;;;;;13.38;6.70;;;;;;;13.40;42.39;102057.00;4861878;29;20028;-72
2021/12/14 04:15:51;;;;;;;7.88;5.55;;;;;;;13.38;42.77;102072.94;4861866;29;20033;-72
2021/12/14 04:18:17;;;;;;;9.65;6.65;;;;;;;13.41;42.65;102075.09;4861787;29;20037;-78
2021/12/14 04:20:46;;;;;;;8.57;5.85;;;;;;;13.45;42.78;102084.34;4845238;29;20757;-78
2021/12/14 04:23:17;;;;;;;11.35;6.38;;;;;;;13.49;42.62;102077.97;4861696;29;20030;-73
2021/12/14 04:25:44;;;;;;;15.05;7.68;;;;;;;13.53;42.65;102072.69;4844140;29;20025;-72
2021/12/14 04:28:13;;;;;;;8.02;6.38;;;;;;;13.46;42.78;102075.00;4861450;29;20052;-71
2021/12/14 04:30:40;;;;;;;9.07;5.85;;;;;;;13.48;42.77;102083.75;4861602;29;20029;-72
2021/12/14 04:33:10;;;;;;;11.65;6.75;;;;;;;13.53;42.90;102080.94;4861492;29;20030;-72
2021/12/14 04:35:38;;;;;;;16.10;6.03;;;;;;;13.56;42.81;102083.06;4861547;29;20033;-72
2021/12/14 04:38:18;;;;;;;8.32;5.25;;;;;;;13.50;43.01;102082.34;4861456;29;20384;-78
2021/12/14 04:54:36;;;;;;;10.50;6.10;;;;;;;13.53;43.16;102075.44;4861443;29;20032;-72
2021/12/14 04:57:15;;;;;;;10.90;5.07;;;;;;;13.56;43.00;102072.09;4861070;29;20421;-72
2021/12/14 04:59:40;;;;;;;9.23;5.55;;;;;;;13.58;42.87;102072.59;4860997;29;20030;-73
2021/12/14 05:02:14;;;;;;;7.07;4.30;;;;;;;13.59;43.02;102068.72;4860982;29;20469;-72
2021/12/14 05:04:39;;;;;;;6.47;4.57;;;;;;;13.54;43.23;102071.59;4844454;29;20116;-72
2021/12/14 05:09:51;;;;;;;7.20;4.65;;;;;;;13.60;43.34;102068.44;4860992;29;20066;-73
2021/12/14 05:12:23;;;;;;;8.23;4.78;;;;;;;13.64;43.57;102067.84;4844211;29;20393;-76
2021/12/14 05:14:50;;;;;;;8.57;4.65;;;;;;;13.72;43.16;102069.88;4844471;29;20039;-78
2021/12/14 05:17:19;;;;;;;6.80;4.50;;;;;;;13.72;43.17;102067.13;4860867;29;20477;-72
2021/12/14 05:19:47;;;;;;;7.85;3.90;;;;;;;13.70;43.42;102074.88;4860779;29;20033;-72
2021/12/14 05:22:16;;;;;;;8.48;4.28;;;;;;;13.64;43.53;102085.13;4860747;29;20026;-72
2021/12/14 05:24:45;;;;;;;9.45;4.57;;;;;;;13.74;43.25;102087.69;4860799;29;20029;-72
2021/12/14 05:27:16;;;;;;;6.70;4.30;;;;;;;13.72;43.37;102083.63;4860563;29;20663;-72
2021/12/14 05:29:42;;;;;;;9.10;4.55;;;;;;;13.61;43.54;102080.25;4860414;29;20048;-72
2021/12/14 05:32:10;;;;;;;11.25;4.88;;;;;;;13.64;43.36;102074.16;4860544;29;20056;-72
2021/12/14 05:34:38;;;;;;;10.38;4.53;;;;;;;13.60;43.66;102071.19;4842689;29;20044;-72
2021/12/14 05:37:07;;;;;;;9.43;5.13;;;;;;;13.56;43.71;102072.09;4843741;29;20037;-72
2021/12/14 05:44:34;;;;;;;13.10;6.32;;;;;;;13.73;43.57;102066.03;4860609;29;20500;-72
2021/12/14 05:47:05;;;;;;;8.07;5.55;;;;;;;13.77;43.41;102062.38;4860293;29;20061;-72
2021/12/14 05:49:31;;;;;;;13.98;7.07;;;;;;;13.73;43.65;102066.84;4860376;29;20040;-72
2021/12/14 05:52:08;;;;;;;10.52;6.70;;;;;;;13.69;43.88;102076.81;4843661;29;20029;-72
2021/12/14 05:54:34;;;;;;;12.32;6.55;;;;;;;13.69;43.74;102081.50;4860304;29;20037;-72
2021/12/14 05:57:03;;;;;;;17.17;7.35;;;;;;;13.79;43.83;102079.38;4860281;29;20026;-72
2021/12/14 05:59:31;;;;;;;9.43;5.22;;;;;;;13.68;44.17;102086.19;4860229;29;20082;-72
2021/12/14 06:01:58;;;;;;;9.27;6.03;;;;;;;13.66;44.28;102093.88;4860276;29;20026;-72
2021/12/14 06:04:35;;;;;;;8.68;5.72;;;;;;;13.74;44.02;102095.94;4860233;29;20516;-72
2021/12/14 06:07:02;;;;;;;10.43;5.75;;;;;;;13.81;43.76;102090.88;4860141;29;20613;-72
2021/12/14 06:09:31;;;;;;;7.78;5.43;;;;;;;13.78;44.06;102098.91;4860137;29;20037;-72
2021/12/14 06:12:07;;;;;;;11.38;6.28;;;;;;;13.78;43.92;102105.22;4860117;29;20038;-73
2021/12/14 06:14:41;;;;;;;11.25;5.43;;;;;;;13.76;43.97;102109.38;4860096;29;20056;-72
2021/12/14 06:17:06;;;;;;;10.70;5.68;;;;;;;13.75;44.19;102104.97;4860155;29;20045;-72
2021/12/14 06:19:39;;;;;;;10.45;5.68;;;;;;;13.73;44.09;102113.53;4859913;29;20026;-72
2021/12/14 06:22:12;;;;;;;9.43;5.53;;;;;;;13.58;44.75;102103.63;4860242;29;20038;-72
2021/12/14 06:24:42;;;;;;;9.05;5.45;;;;;;;13.74;44.39;102111.59;4860036;29;20034;-74
2021/12/14 06:27:12;;;;;;;;;;;;;;;13.61;44.78;102107.72;4860336;29;20389;-72
2021/12/14 06:29:45;;;;;;;10.52;5.20;;;;;;;13.77;44.64;102119.25;4859829;29;19924;-72
2021/12/14 06:32:18;;;;;;;11.60;6.78;;;;;;;13.69;44.61;102112.53;4859675;29;20124;-72
2021/12/14 06:34:53;;;;;;;11.05;6.32;;;;;;;13.64;45.08;102111.78;4856960;29;20029;-71
2021/12/14 06:40:27;;;;;;;11.60;6.00;;;;;;;13.94;44.54;102100.25;4860015;29;20041;-72
2021/12/14 06:43:00;;;;;;;10.27;7.00;;;;;;;13.91;44.93;102111.88;4843180;29;20037;-76
2021/12/14 06:45:39;;;;;;;9.45;6.28;;;;;;;13.84;45.40;102112.25;4859737;29;20029;-72
2021/12/14 06:48:31;;;;;;;9.77;6.43;;;;;;;13.99;45.01;102107.59;4843235;29;20125;-72
2021/12/14 06:51:06;;;;;;;11.15;7.57;;;;;;;14.03;44.88;102108.63;4863072;29;20029;-78
2021/12/14 06:53:32;;;;;;;11.55;7.45;;;;;;;14.22;44.25;102101.13;4863143;29;20029;-72
2021/12/14 06:56:00;;;;;;;9.50;6.50;;;;;;;14.20;44.52;102100.59;4863050;29;20524;-72
2021/12/14 06:58:32;;;;;;;12.63;8.18;;;;;;;14.07;45.03;102101.41;4863052;29;20033;-73
2021/12/14 07:01:04;;;;;;;12.23;7.65;;;;;;;14.10;45.14;102109.84;4863068;29;20038;-72
2021/12/14 07:03:49;;;;;;;12.98;7.22;;;;;;;14.14;44.83;102094.41;4846405;29;20120;-72
2021/12/14 07:06:28;;;;;;;12.43;7.03;;;;;;;14.21;44.85;102098.66;4846026;29;20509;-72
2021/12/14 07:08:58;;;;;;;12.27;7.37;;;;;;;14.27;44.70;102100.19;4862982;29;20059;-77
2021/12/14 07:11:26;;;;;;;15.15;8.23;;;;;;;14.26;44.98;102093.06;4862876;29;20108;-72
2021/12/14 07:13:53;;;;;;;11.75;7.10;;;;;;;14.27;44.75;102090.00;4862801;29;20037;-71
2021/12/14 07:16:30;;;;;;;12.27;7.65;;;;;;;14.18;45.17;102099.28;4862758;29;20029;-72
2021/12/14 07:18:59;;;;;;;12.88;7.05;;;;;;;14.28;44.97;102085.31;4862834;29;20029;-72
2021/12/14 07:21:37;;;;;;;10.33;7.53;;;;;;;14.13;45.34;102075.44;4862730;29;20469;-72
2021/12/14 07:24:35;;;;;;;10.95;7.30;;;;;;;14.10;45.63;102070.56;4862533;29;20791;-71
2021/12/14 07:27:24;;;;;;;11.02;7.30;;;;;;;14.10;45.61;102076.06;4838872;29;20041;-72
2021/12/14 07:29:51;;;;;;;13.57;7.75;;;;;;;14.18;45.18;102085.53;4862491;29;20049;-72
2021/12/14 07:32:38;;;;;;;13.07;7.38;;;;;;;14.09;45.82;102077.19;4862538;29;20051;-72
2021/12/14 07:35:35;;;;;;;14.73;8.07;;;;;;;14.20;45.30;102075.03;4862215;29;20459;-72
2021/12/14 07:38:16;;;;;;;15.70;8.15;;;;;;;14.36;45.01;102073.63;4797701;29;20048;-72
2021/12/14 07:40:46;;;;;;;13.73;7.80;;;;;;;14.32;45.06;102065.16;4862409;29;20560;-71
2021/12/14 07:43:12;;;;;;;;;;;;;;;14.22;45.54;102070.88;4862657;29;20485;-77
2021/12/14 07:45:37;;;;;;;11.65;7.82;;;;;;;14.27;45.12;102061.69;4861147;29;19928;-71
2021/12/14 07:48:03;;;;;;;15.80;9.25;;;;;;;14.34;45.04;102064.84;4860689;29;20121;-72
2021/12/14 07:50:42;;;;;;;16.92;8.18;;;;;;;14.32;45.09;102053.34;4862233;29;20504;-72
2021/12/14 07:53:08;;;;;;;11.55;7.40;;;;;;;14.27;44.97;102061.69;4862290;29;20062;-73
2021/12/14 07:55:39;;;;;;;12.10;7.57;;;;;;;14.15;45.42;102059.47;4862187;29;20037;-70
2021/12/14 07:58:05;;;;;;;11.82;8.40;;;;;;;14.18;45.29;102056.09;4858220;29;21708;-72
2021/12/14 08:00:35;;;;;;;14.38;8.40;;;;;;;14.26;45.32;102065.56;4845467;29;20109;-72
2021/12/14 08:03:03;;;;;;;14.25;9.35;;;;;;;14.28;45.01;102066.91;4860555;29;20389;-71
2021/12/14 08:05:36;;;;;;;13.32;9.23;;;;;;;14.19;45.60;102065.97;4861219;29;20481;-73
2021/12/14 08:08:09;;;;;;;14.95;9.30;;;;;;;14.32;45.22;102059.66;4861684;29;20041;-72
2021/12/14 08:10:41;;;;;;;13.45;9.07;;;;;;;14.26;45.54;102058.13;4855745;29;20029;-72
2021/12/14 08:13:22;;;;;;;14.00;9.43;;;;;;;14.39;44.91;102067.50;4829335;29;20074;-71
2021/12/14 08:15:53;;;;;;;14.30;9.48;;;;;;;14.37;45.00;102067.81;4861316;29;20036;-71
2021/12/14 08:18:28;;;;;;;18.17;11.30;;;;;;;14.34;45.13;102062.91;4860457;29;20037;-71
2021/12/14 08:20:57;;;;;;;14.25;9.40;;;;;;;14.37;44.97;102073.31;4861559;29;20085;-71
2021/12/14 08:23:38;;;;;;;15.63;10.32;;;;;;;14.41;45.04;102065.25;4861525;29;20631;-72
2021/12/14 08:26:14;;;;;;;16.55;9.68;;;;;;;14.36;45.16;102074.44;4861416;29;20070;-71
2021/12/14 08:29:03;;;;;;;16.63;10.07;;;;;;;14.33;45.04;102077.78;4860271;29;20094;-72
2021/12/14 08:31:53;;;;;;;14.70;9.65;;;;;;;14.40;45.13;102052.63;4861199;29;20586;-71
2021/12/14 08:34:24;;;;;;;12.25;8.70;;;;;;;14.42;44.96;102070.44;4859532;29;20431;-71
2021/12/14 08:37:00;;;;;;;15.73;8.68;;;;;;;14.34;45.35;102070.34;4826458;29;20556;-71
2021/12/14 08:39:31;;;;;;;16.10;9.43;;;;;;;14.45;44.95;102077.28;4842898;29;20029;-71
2021/12/14 08:42:10;;;;;;;15.93;10.52;;;;;;;14.40;45.22;102088.38;4842815;29;20033;-72
2021/12/14 08:44:40;;;;;;;15.20;9.35;;;;;;;14.40;45.04;102089.19;4842552;29;20026;-71
2021/12/14 08:47:19;;;;;;;13.93;9.80;;;;;;;14.39;45.32;102081.25;4842679;29;20037;-72
2021/12/14 08:49:45;;;;;;;15.25;10.15;;;;;;;14.49;44.90;102077.50;4842770;29;20428;-71
2021/12/14 08:52:11;;;;;;;14.98;9.90;;;;;;;14.46;45.21;102089.13;4842453;29;20061;-72
2021/12/14 08:54:40;;;;;;;17.48;10.93;;;;;;;14.49;44.99;102077.50;4841536;29;20034;-72
2021/12/14 08:57:18;;;;;;;18.35;10.50;;;;;;;14.53;45.14;102073.03;4834400;29;20393;-72
2021/12/14 08:59:51;;;;;;;14.77;10.70;;;;;;;14.45;45.43;102088.28;4856911;29;20501;-72
2021/12/14 09:02:18;;;;;;;17.42;12.57;;;;;;;14.51;45.52;102091.75;4861043;29;20030;-72
2021/12/14 09:04:52;;;;;;;17.77;11.45;;;;;;;14.55;45.42;102082.59;4843847;29;20056;-73
2021/12/14 09:07:22;;;;;;;21.45;12.27;;;;;;;14.49;45.69;102088.50;4860875;29;20034;-73
2021/12/14 09:09:47;;;;;;;;;;;;;;;14.37;46.17;102081.56;4861166;29;20029;-72
2021/12/14 09:12:24;;;;;;;20.15;11.45;;;;;;;14.62;45.46;102077.50;4860198;29;19916;-72
2021/12/14 09:14:51;;;;;;;15.98;10.10;;;;;;;14.67;45.63;102069.16;4860799;29;20054;-71
2021/12/14 09:17:22;;;;;;;15.85;10.65;;;;;;;14.64;45.84;102075.25;4860642;29;20101;-72
2021/12/14 09:20:02;;;;;;;20.30;11.20;;;;;;;14.60;46.34;102079.75;4860658;29;20037;-72
2021/12/14 09:22:31;;;;;;;;;;;;;;;14.59;46.61;102083.63;4861074;29;20120;-72
2021/12/14 09:24:58;;;;;;;16.13;10.73;;;;;;;14.92;45.28;102078.75;4860819;29;19920;-72
2021/12/14 09:27:28;;;;;;;16.42;11.20;;;;;;;14.96;45.61;102074.28;4860437;29;20045;-72
2021/12/14 09:29:55;;;;;;;;;;;;;;;15.05;45.36;102079.03;4876724;29;20100;-72
2021/12/14 09:32:26;;;;;;;14.77;8.75;;;;;;;15.15;45.08;102081.56;4879052;29;19916;-73
2021/12/14 09:34:53;;;;;;;16.38;9.75;;;;;;;15.13;45.29;102090.13;4878472;29;20044;-72
2021/12/14 09:37:20;;;;;;;14.30;9.30;;;;;;;14.98;45.99;102091.28;4862199;29;20100;-72
2021/12/14 09:39:49;;;;;;;17.05;10.20;;;;;;;15.13;45.52;102094.81;4878999;29;20033;-72
2021/12/14 09:42:20;;;;;;;16.90;10.32;;;;;;;15.28;45.53;102099.97;4878868;29;20032;-72
2021/12/14 09:44:47;;;;;;;11.48;8.55;;;;;;;15.31;45.50;102110.34;4878753;29;20059;-72
2021/12/14 09:47:20;;;;;;;11.55;8.85;;;;;;;15.38;45.29;102109.91;4878623;29;20065;-72
2021/12/14 09:49:48;;;;;;;13.88;9.50;;;;;;;15.35;45.58;102103.09;4862105;29;20040;-72
2021/12/14 09:52:21;;;;;;;11.23;8.25;;;;;;;15.49;45.24;102111.28;4878342;29;20556;-72
2021/12/14 09:54:48;;;;;;;13.18;9.27;;;;;;;15.48;45.35;102104.97;4861999;29;20062;-75
2021/12/14 09:57:40;;;;;;;13.93;9.30;;;;;;;15.50;45.48;102116.50;4878616;29;20104;-72
2021/12/14 10:00:16;;;;;;;10.15;7.97;;;;;;;15.53;45.36;102109.53;4855212;29;20081;-72
2021/12/14 10:02:45;;;;;;;11.80;8.32;;;;;;;15.51;45.49;102114.56;4854291;29;20018;-72
2021/12/14 10:05:23;;;;;;;10.20;7.15;;;;;;;15.44;45.68;102111.44;4854653;29;20029;-72
2021/12/14 10:07:49;;;;;;;14.05;8.48;;;;;;;15.58;45.43;102111.38;4850133;29;20033;-71
2021/12/14 10:10:18;;;;;;;10.73;7.88;;;;;;;15.56;45.35;102111.66;4842721;29;20033;-75
2021/12/14 10:12:51;;;;;;;11.35;7.40;;;;;;;15.66;45.29;102110.66;4857976;29;20025;-73
2021/12/14 10:15:38;;;;;;;12.20;8.23;;;;;;;15.77;45.10;102114.75;4855984;29;20036;-73
2021/12/14 10:18:21;;;;;;;12.05;7.55;;;;;;;15.71;45.74;102121.53;4841665;29;20026;-73
2021/12/14 10:20:54;;;;;;;9.55;7.05;;;;;;;15.90;45.36;102118.56;4849956;29;20034;-76
2021/12/14 10:23:21;;;;;;;9.77;6.85;;;;;;;15.84;45.67;102123.41;4841628;29;20041;-76
2021/12/14 10:25:47;;;;;;;11.30;7.47;;;;;;;15.99;45.26;102124.94;4844349;29;20069;-82
2021/12/14 10:28:13;;;;;;;17.58;12.93;;;;;;;16.05;45.47;102123.69;4846278;29;20172;-78
2021/12/14 10:30:44;;;;;;;16.92;15.13;;;;;;;15.95;45.52;102123.97;4835848;29;20038;-80
2021/12/14 10:33:11;;;;;;;11.00;8.10;;;;;;;16.26;45.21;102118.44;4839117;29;20036;-77
2021/12/14 10:35:48;;;;;;;9.75;6.95;;;;;;;16.18;45.50;102130.25;4844457;29;20033;-85
2021/12/14 10:38:34;;;;;;;9.77;7.43;;;;;;;16.27;45.11;102140.19;4842381;29;20985;-85
2021/12/14 10:44:04;;;;;;;13.88;11.02;;;;;;;16.48;45.09;102140.44;4866576;29;20510;-76
2021/12/14 10:46:45;;;;;;;9.23;7.18;;;;;;;16.64;44.88;102136.09;4859422;29;20545;-78
2021/12/14 10:49:17;;;;;;;10.73;9.45;;;;;;;16.72;45.00;102144.75;4864924;29;20033;-76
2021/12/14 10:51:45;;;;;;;14.15;12.70;;;;;;;16.83;44.70;102144.13;4866492;29;20056;-76
2021/12/14 10:54:14;;;;;;;10.13;7.82;;;;;;;16.87;45.02;102136.84;4848447;29;20482;-76
2021/12/14 10:56:55;;;;;;;12.40;8.65;;;;;;;16.84;45.10;102128.38;4865165;29;20033;-75
2021/12/14 10:59:24;;;;;;;10.43;6.90;;;;;;;16.95;44.74;102135.22;4848696;29;20508;-76
2021/12/14 11:01:51;;;;;;;8.82;7.93;;;;;;;16.97;44.90;102124.66;4862718;29;20115;-76
2021/12/14 11:04:26;;;;;;;8.38;6.85;;;;;;;16.98;44.93;102134.56;4835265;29;20028;-77
2021/12/14 11:06:53;;;;;;;6.50;4.93;;;;;;;17.09;44.98;102138.66;4851312;29;20069;-77
2021/12/14 11:09:41;;;;;;;7.20;5.28;;;;;;;17.08;44.63;102137.03;4853119;29;20124;-77
2021/12/14 11:12:11;;;;;;;8.02;5.72;;;;;;;17.17;44.93;102129.56;4833702;29;20606;-76
2021/12/14 11:14:37;;;;;;;7.70;5.72;;;;;;;17.43;44.64;102128.75;4848575;29;20033;-75
2021/12/14 11:20:11;;;;;;;6.43;4.57;;;;;;;17.39;44.71;102122.25;4859955;29;20128;-75
2021/12/14 11:22:48;;;;;;;8.50;4.82;;;;;;;17.52;44.17;102118.50;4859488;29;20032;-77
2021/12/14 11:25:19;;;;;;;5.57;3.42;;;;;;;17.65;44.12;102117.50;4862025;29;20037;-77
2021/12/14 11:27:55;;;;;;;6.13;3.42;;;;;;;17.63;44.31;102116.22;4847812;29;20501;-77
2021/12/14 11:30:28;;;;;;;9.52;4.53;;;;;;;17.58;44.06;102114.41;4861553;29;20760;-77
2021/12/14 11:33:09;;;;;;;7.15;3.28;;;;;;;17.71;43.91;102099.66;4853275;29;20564;-78
2021/12/14 11:35:40;;;;;;;5.65;2.90;;;;;;;17.93;43.99;102103.34;4852146;29;20038;-77
2021/12/14 11:38:22;;;;;;;8.13;2.55;;;;;;;17.97;43.91;102101.53;4844591;29;20052;-82
2021/12/14 11:40:48;;;;;;;5.15;2.45;;;;;;;18.10;43.77;102102.47;4858020;29;20489;-84
2021/12/14 11:43:18;;;;;;;5.40;2.72;;;;;;;17.99;43.61;102088.19;4860687;29;20072;-84
2021/12/14 11:45:47;;;;;;;4.05;2.75;;;;;;;17.86;44.33;102094.75;4841268;29;20058;-85
2021/12/14 11:48:15;;;;;;;3.53;2.10;;;;;;;17.89;43.98;102083.81;4860037;29;20073;-76
2021/12/14 11:50:45;;;;;;;7.38;2.30;;;;;;;17.96;44.01;102080.53;4862606;29;20509;-77
2021/12/14 11:53:17;;;;;;;5.07;2.35;;;;;;;18.10;43.48;102085.88;4867696;29;20029;-78
2021/12/14 11:56:07;;;;;;;5.20;2.17;;;;;;;18.05;43.58;102084.09;4872773;29;20025;-86
2021/12/14 11:58:48;;;;;;;4.45;2.05;;;;;;;17.90;43.46;102084.63;4874751;29;20025;-80
2021/12/14 12:01:51;;;;;;;8.45;2.13;;;;;;;17.97;43.30;102080.22;4859927;29;20077;-78
2021/12/14 12:04:23;;;;;;;3.78;2.20;;;;;;;17.80;43.99;102079.47;4856488;29;20132;-78
2021/12/14 12:09:30;;;;;;;4.40;2.60;;;;;;;18.16;43.01;102077.06;4856965;29;20037;-78
2021/12/14 12:12:16;;;;;;;3.83;2.50;;;;;;;18.17;42.88;102073.16;4838676;29;20906;-77
2021/12/14 12:14:51;;;;;;;3.17;1.90;;;;;;;18.24;42.69;102073.44;4837400;29;20397;-78
2021/12/14 12:17:40;;;;;;;4.03;2.70;;;;;;;18.18;42.72;102072.00;4842868;29;20076;-77
2021/12/14 12:20:18;;;;;;;7.03;3.20;;;;;;;18.17;42.97;102058.50;4861518;29;20082;-78
2021/12/14 12:23:13;;;;;;;4.47;2.20;;;;;;;18.20;42.87;102057.81;4860963;29;20030;-77
2021/12/14 12:25:38;;;;;;;4.93;3.80;;;;;;;18.12;42.66;102039.31;4842008;29;20046;-76
2021/12/14 12:28:17;;;;;;;7.55;2.70;;;;;;;18.22;42.47;102048.06;4861853;29;20086;-82
2021/12/14 12:30:53;;;;;;;4.82;3.10;;;;;;;18.12;42.78;102048.41;4861811;29;20108;-76
2021/12/14 12:33:35;;;;;;;6.30;4.13;;;;;;;18.40;41.98;102043.25;4845357;29;20080;-80
2021/12/14 12:36:25;;;;;;;5.15;3.35;;;;;;;18.31;42.37;102034.19;4862069;29;20079;-77